sensor_id;sensor_type;location;lat;lon;timestamp;pressure;altitude;pressure_sealevel;temperature;humidity
21753;BME280;11038;50.940;20.564;2022-09-09T00:00:21;97378.06;;;15.46;100.00
21753;BME280;11038;50.940;20.564;2022-09-09T00:02:21;97379.53;;;15.42;100.00
21753;BME280;11038;50.940;20.564;2022-09-09T00:04:23;97378.06;;;15.46;100.00
21753;BME280;11038;50.940;20.564;2022-09-09T00:07:58;97389.47;;;15.48;100.00
21753;BME280;11038;50.940;20.564;2022-09-09T00:09:40;97382.00;;;15.50;100.00
21753;BME280;11038;50.940;20.564;2022-09-09T00:11:20;97386.56;;;15.49;100.00
21753;BME280;11038;50.940;20.564;2022-09-09T00:14:58;97383.88;;;15.56;100.00
21753;BME280;11038;50.940;20.564;2022-09-09T00:16:35;97391.31;;;15.54;100.00
21753;BME280;11038;50.940;20.564;2022-09-09T00:20:21;97386.38;;;15.51;100.00
21753;BME280;11038;50.940;20.564;2022-09-09T00:22:17;97390.06;;;15.57;100.00
21753;BME280;11038;50.940;20.564;2022-09-09T00:23:55;97380.31;;;15.63;100.00
21753;BME280;11038;50.940;20.564;2022-09-09T00:25:34;97389.44;;;15.62;100.00
21753;BME280;11038;50.940;20.564;2022-09-09T00:27:36;97376.41;;;15.58;100.00
21753;BME280;11038;50.940;20.564;2022-09-09T00:29:22;97384.47;;;15.58;100.00
21753;BME280;11038;50.940;20.564;2022-09-09T00:31:11;97377.19;;;15.66;100.00
21753;BME280;11038;50.940;20.564;2022-09-09T00:32:45;97381.31;;;15.75;100.00
21753;BME280;11038;50.940;20.564;2022-09-09T00:34:23;97383.97;;;15.82;100.00
21753;BME280;11038;50.940;20.564;2022-09-09T00:36:00;97386.47;;;15.83;100.00
21753;BME280;11038;50.940;20.564;2022-09-09T00:37:33;97385.47;;;15.71;100.00
21753;BME280;11038;50.940;20.564;2022-09-09T00:39:34;97380.66;;;15.80;100.00
21753;BME280;11038;50.940;20.564;2022-09-09T00:43:29;97394.19;;;15.73;100.00
21753;BME280;11038;50.940;20.564;2022-09-09T00:45:28;97390.47;;;15.67;100.00
21753;BME280;11038;50.940;20.564;2022-09-09T00:47:35;97386.66;;;15.82;100.00
21753;BME280;11038;50.940;20.564;2022-09-09T00:50:56;97389.53;;;15.87;100.00
21753;BME280;11038;50.940;20.564;2022-09-09T00:56:13;97390.75;;;15.98;100.00
21753;BME280;11038;50.940;20.564;2022-09-09T00:57:51;97382.53;;;15.86;100.00
21753;BME280;11038;50.940;20.564;2022-09-09T00:59:57;97388.75;;;15.87;100.00
21753;BME280;11038;50.940;20.564;2022-09-09T01:01:22;97385.03;;;15.81;100.00
21753;BME280;11038;50.940;20.564;2022-09-09T01:03:18;97391.66;;;15.78;100.00
21753;BME280;11038;50.940;20.564;2022-09-09T01:04:52;97389.53;;;15.87;100.00
21753;BME280;11038;50.940;20.564;2022-09-09T01:06:33;97388.94;;;15.85;100.00
21753;BME280;11038;50.940;20.564;2022-09-09T01:08:14;97393.31;;;15.79;100.00
21753;BME280;11038;50.940;20.564;2022-09-09T01:09:56;97393.25;;;15.93;100.00
21753;BME280;11038;50.940;20.564;2022-09-09T01:11:37;97394.69;;;16.02;100.00
21753;BME280;11038;50.940;20.564;2022-09-09T01:13:22;97405.28;;;15.97;100.00
21753;BME280;11038;50.940;20.564;2022-09-09T01:16:41;97404.81;;;16.14;100.00
21753;BME280;11038;50.940;20.564;2022-09-09T01:18:17;97408.72;;;16.18;100.00
21753;BME280;11038;50.940;20.564;2022-09-09T01:20:01;97408.91;;;16.23;100.00
21753;BME280;11038;50.940;20.564;2022-09-09T01:21:55;97406.84;;;16.19;100.00
21753;BME280;11038;50.940;20.564;2022-09-09T01:27:18;97403.06;;;16.33;100.00
21753;BME280;11038;50.940;20.564;2022-09-09T01:28:52;97407.56;;;16.40;100.00
21753;BME280;11038;50.940;20.564;2022-09-09T01:30:25;97401.97;;;16.41;100.00
21753;BME280;11038;50.940;20.564;2022-09-09T01:32:36;97406.72;;;16.39;100.00
21753;BME280;11038;50.940;20.564;2022-09-09T01:33:55;97398.63;;;16.39;100.00
21753;BME280;11038;50.940;20.564;2022-09-09T01:35:44;97402.34;;;16.45;100.00
21753;BME280;11038;50.940;20.564;2022-09-09T01:37:18;97395.50;;;16.49;100.00
21753;BME280;11038;50.940;20.564;2022-09-09T01:38:50;97403.56;;;16.49;100.00
21753;BME280;11038;50.940;20.564;2022-09-09T01:40:24;97403.53;;;16.56;100.00
21753;BME280;11038;50.940;20.564;2022-09-09T01:41:57;97402.50;;;16.57;100.00
21753;BME280;11038;50.940;20.564;2022-09-09T01:43:30;97412.59;;;16.62;100.00
21753;BME280;11038;50.940;20.564;2022-09-09T01:45:03;97405.34;;;16.62;100.00
21753;BME280;11038;50.940;20.564;2022-09-09T01:46:36;97403.25;;;16.64;100.00
21753;BME280;11038;50.940;20.564;2022-09-09T01:48:08;97397.44;;;16.67;100.00
21753;BME280;11038;50.940;20.564;2022-09-09T01:49:40;97408.44;;;16.66;100.00
21753;BME280;11038;50.940;20.564;2022-09-09T01:51:12;97411.53;;;16.69;100.00
21753;BME280;11038;50.940;20.564;2022-09-09T01:52:47;97412.34;;;16.70;100.00
21753;BME280;11038;50.940;20.564;2022-09-09T01:54:23;97413.78;;;16.73;100.00
21753;BME280;11038;50.940;20.564;2022-09-09T01:56:02;97411.69;;;16.75;100.00
21753;BME280;11038;50.940;20.564;2022-09-09T02:00:12;97407.53;;;16.79;100.00
21753;BME280;11038;50.940;20.564;2022-09-09T02:01:52;97415.63;;;16.79;100.00
21753;BME280;11038;50.940;20.564;2022-09-09T02:03:32;97413.53;;;16.81;100.00
21753;BME280;11038;50.940;20.564;2022-09-09T02:06:41;97419.75;;;16.81;100.00
21753;BME280;11038;50.940;20.564;2022-09-09T02:08:39;97409.16;;;16.80;100.00
21753;BME280;11038;50.940;20.564;2022-09-09T02:10:25;97411.66;;;16.81;100.00
21753;BME280;11038;50.940;20.564;2022-09-09T02:12:04;97412.25;;;16.84;100.00
21753;BME280;11038;50.940;20.564;2022-09-09T02:13:39;97419.06;;;16.86;100.00
21753;BME280;11038;50.940;20.564;2022-09-09T02:15:20;97419.31;;;16.85;100.00
21753;BME280;11038;50.940;20.564;2022-09-09T02:16:59;97423.28;;;16.82;100.00
21753;BME280;11038;50.940;20.564;2022-09-09T02:19:02;97428.44;;;16.84;100.00
21753;BME280;11038;50.940;20.564;2022-09-09T02:20:37;97431.38;;;16.82;100.00
21753;BME280;11038;50.940;20.564;2022-09-09T02:22:10;97440.28;;;16.82;100.00
21753;BME280;11038;50.940;20.564;2022-09-09T02:23:45;97432.84;;;16.78;100.00
21753;BME280;11038;50.940;20.564;2022-09-09T02:25:22;97434.06;;;16.82;100.00
21753;BME280;11038;50.940;20.564;2022-09-09T02:26:56;97438.41;;;16.83;100.00
21753;BME280;11038;50.940;20.564;2022-09-09T02:28:32;97434.91;;;16.82;100.00
21753;BME280;11038;50.940;20.564;2022-09-09T02:30:06;97430.75;;;16.80;100.00
21753;BME280;11038;50.940;20.564;2022-09-09T02:31:39;97442.59;;;16.79;100.00
21753;BME280;11038;50.940;20.564;2022-09-09T02:33:13;97443.84;;;16.76;100.00
21753;BME280;11038;50.940;20.564;2022-09-09T02:34:52;97434.69;;;16.77;100.00
21753;BME280;11038;50.940;20.564;2022-09-09T02:36:29;97445.88;;;16.81;100.00
21753;BME280;11038;50.940;20.564;2022-09-09T02:38:06;97442.34;;;16.80;100.00
21753;BME280;11038;50.940;20.564;2022-09-09T02:39:39;97439.28;;;16.77;100.00
21753;BME280;11038;50.940;20.564;2022-09-09T02:41:12;97440.94;;;16.78;100.00
21753;BME280;11038;50.940;20.564;2022-09-09T02:42:48;97440.31;;;16.76;100.00
21753;BME280;11038;50.940;20.564;2022-09-09T02:44:21;97444.69;;;16.77;100.00
21753;BME280;11038;50.940;20.564;2022-09-09T02:45:57;97439.06;;;16.78;100.00
21753;BME280;11038;50.940;20.564;2022-09-09T02:49:09;97445.50;;;16.77;100.00
21753;BME280;11038;50.940;20.564;2022-09-09T02:52:38;97449.00;;;16.78;100.00
21753;BME280;11038;50.940;20.564;2022-09-09T02:54:23;97451.72;;;16.78;100.00
21753;BME280;11038;50.940;20.564;2022-09-09T02:56:17;97447.59;;;16.75;100.00
21753;BME280;11038;50.940;20.564;2022-09-09T02:57:52;97455.69;;;16.75;100.00
21753;BME280;11038;50.940;20.564;2022-09-09T02:59:26;97444.06;;;16.75;100.00
21753;BME280;11038;50.940;20.564;2022-09-09T03:00:59;97459.63;;;16.73;100.00
21753;BME280;11038;50.940;20.564;2022-09-09T03:02:33;97442.84;;;16.70;100.00
21753;BME280;11038;50.940;20.564;2022-09-09T03:04:05;97459.63;;;16.73;100.00
21753;BME280;11038;50.940;20.564;2022-09-09T03:05:37;97459.88;;;16.71;100.00
21753;BME280;11038;50.940;20.564;2022-09-09T03:07:11;97461.72;;;16.70;100.00
21753;BME280;11038;50.940;20.564;2022-09-09T03:08:43;97462.34;;;16.73;100.00
21753;BME280;11038;50.940;20.564;2022-09-09T03:10:20;97463.41;;;16.71;100.00
21753;BME280;11038;50.940;20.564;2022-09-09T03:11:52;97458.81;;;16.72;100.00
21753;BME280;11038;50.940;20.564;2022-09-09T03:13:27;97465.47;;;16.69;100.00
21753;BME280;11038;50.940;20.564;2022-09-09T03:14:59;97464.44;;;16.70;100.00
21753;BME280;11038;50.940;20.564;2022-09-09T03:16:31;97467.13;;;16.70;100.00
21753;BME280;11038;50.940;20.564;2022-09-09T03:18:05;97462.75;;;16.69;100.00
21753;BME280;11038;50.940;20.564;2022-09-09T03:19:37;97464.84;;;16.67;100.00
21753;BME280;11038;50.940;20.564;2022-09-09T03:21:09;97464.03;;;16.67;100.00
21753;BME280;11038;50.940;20.564;2022-09-09T03:22:42;97465.09;;;16.66;100.00
21753;BME280;11038;50.940;20.564;2022-09-09T03:24:17;97466.94;;;16.65;100.00
21753;BME280;11038;50.940;20.564;2022-09-09T03:25:49;97464.25;;;16.65;100.00
21753;BME280;11038;50.940;20.564;2022-09-09T03:27:22;97470.69;;;16.64;100.00
21753;BME280;11038;50.940;20.564;2022-09-09T03:28:54;97472.34;;;16.65;100.00
21753;BME280;11038;50.940;20.564;2022-09-09T03:30:27;97473.38;;;16.64;100.00
21753;BME280;11038;50.940;20.564;2022-09-09T03:31:59;97467.97;;;16.64;100.00
21753;BME280;11038;50.940;20.564;2022-09-09T03:33:31;97469.03;;;16.63;100.00
21753;BME280;11038;50.940;20.564;2022-09-09T03:35:04;97470.06;;;16.62;100.00
21753;BME280;11038;50.940;20.564;2022-09-09T03:36:37;97480.25;;;16.60;100.00
21753;BME280;11038;50.940;20.564;2022-09-09T03:38:09;97472.16;;;16.60;100.00
21753;BME280;11038;50.940;20.564;2022-09-09T03:39:41;97472.78;;;16.62;100.00
21753;BME280;11038;50.940;20.564;2022-09-09T03:41:13;97477.94;;;16.64;100.00
21753;BME280;11038;50.940;20.564;2022-09-09T03:42:46;97477.13;;;16.63;100.00
21753;BME280;11038;50.940;20.564;2022-09-09T03:44:19;97474.25;;;16.58;100.00
21753;BME280;11038;50.940;20.564;2022-09-09T03:45:52;97475.06;;;16.58;100.00
21753;BME280;11038;50.940;20.564;2022-09-09T03:47:24;97487.53;;;16.53;100.00
21753;BME280;11038;50.940;20.564;2022-09-09T03:48:57;97491.06;;;16.53;100.00
21753;BME280;11038;50.940;20.564;2022-09-09T03:50:29;97493.78;;;16.53;100.00
21753;BME280;11038;50.940;20.564;2022-09-09T03:52:01;97485.91;;;16.52;100.00
21753;BME280;11038;50.940;20.564;2022-09-09T03:53:34;97494.81;;;16.52;100.00
21753;BME280;11038;50.940;20.564;2022-09-09T03:55:07;97492.31;;;16.51;100.00
21753;BME280;11038;50.940;20.564;2022-09-09T03:56:39;97497.13;;;16.48;100.00
21753;BME280;11038;50.940;20.564;2022-09-09T03:58:14;97496.28;;;16.48;100.00
21753;BME280;11038;50.940;20.564;2022-09-09T03:59:46;97493.81;;;16.46;100.00
21753;BME280;11038;50.940;20.564;2022-09-09T04:01:19;97490.47;;;16.44;100.00
21753;BME280;11038;50.940;20.564;2022-09-09T04:02:51;97490.94;;;16.41;100.00
21753;BME280;11038;50.940;20.564;2022-09-09T04:04:25;97495.50;;;16.41;100.00
21753;BME280;11038;50.940;20.564;2022-09-09T04:05:59;97495.09;;;16.37;100.00
21753;BME280;11038;50.940;20.564;2022-09-09T04:07:32;97501.53;;;16.36;100.00
21753;BME280;11038;50.940;20.564;2022-09-09T04:09:04;97504.66;;;16.33;100.00
21753;BME280;11038;50.940;20.564;2022-09-09T04:10:36;97505.91;;;16.30;100.00
21753;BME280;11038;50.940;20.564;2022-09-09T04:12:09;97500.28;;;16.32;100.00
21753;BME280;11038;50.940;20.564;2022-09-09T04:13:43;97503.00;;;16.32;100.00
21753;BME280;11038;50.940;20.564;2022-09-09T04:15:16;97504.66;;;16.26;100.00
21753;BME280;11038;50.940;20.564;2022-09-09T04:16:50;97503.22;;;16.23;100.00
21753;BME280;11038;50.940;20.564;2022-09-09T04:18:23;97499.75;;;16.16;100.00
21753;BME280;11038;50.940;20.564;2022-09-09T04:19:55;97502.22;;;16.18;100.00
21753;BME280;11038;50.940;20.564;2022-09-09T04:21:28;97507.00;;;16.15;100.00
21753;BME280;11038;50.940;20.564;2022-09-09T04:23:01;97509.69;;;16.15;100.00
21753;BME280;11038;50.940;20.564;2022-09-09T04:24:33;97510.34;;;16.11;100.00
21753;BME280;11038;50.940;20.564;2022-09-09T04:26:06;97509.72;;;16.09;100.00
21753;BME280;11038;50.940;20.564;2022-09-09T04:27:38;97513.03;;;16.11;100.00
21753;BME280;11038;50.940;20.564;2022-09-09T04:29:10;97511.97;;;16.05;100.00
21753;BME280;11038;50.940;20.564;2022-09-09T04:30:43;97514.47;;;16.07;100.00
21753;BME280;11038;50.940;20.564;2022-09-09T04:32:15;97520.69;;;16.07;100.00
21753;BME280;11038;50.940;20.564;2022-09-09T04:33:48;97516.34;;;16.06;100.00
21753;BME280;11038;50.940;20.564;2022-09-09T04:35:21;97521.72;;;16.06;100.00
21753;BME280;11038;50.940;20.564;2022-09-09T04:36:53;97521.72;;;16.06;100.00
21753;BME280;11038;50.940;20.564;2022-09-09T04:38:25;97527.94;;;16.07;100.00
21753;BME280;11038;50.940;20.564;2022-09-09T04:39:58;97522.56;;;16.07;100.00
21753;BME280;11038;50.940;20.564;2022-09-09T04:41:31;97523.38;;;16.07;100.00
21753;BME280;11038;50.940;20.564;2022-09-09T04:43:03;97520.06;;;16.12;100.00
21753;BME280;11038;50.940;20.564;2022-09-09T04:44:43;97524.84;;;16.10;100.00
21753;BME280;11038;50.940;20.564;2022-09-09T04:46:15;97529.81;;;16.13;100.00
21753;BME280;11038;50.940;20.564;2022-09-09T04:47:50;97527.34;;;16.11;100.00
21753;BME280;11038;50.940;20.564;2022-09-09T04:49:22;97528.13;;;16.12;100.00
21753;BME280;11038;50.940;20.564;2022-09-09T04:51:00;97531.66;;;16.12;100.00
21753;BME280;11038;50.940;20.564;2022-09-09T04:52:36;97535.81;;;16.15;100.00
21753;BME280;11038;50.940;20.564;2022-09-09T04:54:08;97534.16;;;16.14;100.00
21753;BME280;11038;50.940;20.564;2022-09-09T04:55:41;97544.50;;;16.17;100.00
21753;BME280;11038;50.940;20.564;2022-09-09T04:57:13;97538.31;;;16.17;100.00
21753;BME280;11038;50.940;20.564;2022-09-09T04:58:49;97539.75;;;16.19;100.00
21753;BME280;11038;50.940;20.564;2022-09-09T05:00:21;97541.38;;;16.20;100.00
21753;BME280;11038;50.940;20.564;2022-09-09T05:01:55;97547.41;;;16.22;100.00
21753;BME280;11038;50.940;20.564;2022-09-09T05:03:29;97550.09;;;16.22;100.00
21753;BME280;11038;50.940;20.564;2022-09-09T05:05:02;97546.59;;;16.22;100.00
21753;BME280;11038;50.940;20.564;2022-09-09T05:06:34;97560.66;;;16.24;100.00
21753;BME280;11038;50.940;20.564;2022-09-09T05:08:08;97562.34;;;16.25;100.00
21753;BME280;11038;50.940;20.564;2022-09-09T05:09:41;97552.34;;;16.25;100.00
21753;BME280;11038;50.940;20.564;2022-09-09T05:11:19;97555.88;;;16.26;100.00
21753;BME280;11038;50.940;20.564;2022-09-09T05:12:53;97554.84;;;16.27;100.00
21753;BME280;11038;50.940;20.564;2022-09-09T05:14:25;97555.25;;;16.31;100.00
21753;BME280;11038;50.940;20.564;2022-09-09T05:15:59;97557.75;;;16.32;100.00
21753;BME280;11038;50.940;20.564;2022-09-09T05:17:31;97561.03;;;16.34;100.00
21753;BME280;11038;50.940;20.564;2022-09-09T05:19:03;97562.72;;;16.35;100.00
21753;BME280;11038;50.940;20.564;2022-09-09T05:20:35;97557.69;;;16.39;100.00
21753;BME280;11038;50.940;20.564;2022-09-09T05:22:08;97555.41;;;16.43;100.00
21753;BME280;11038;50.940;20.564;2022-09-09T05:23:40;97552.72;;;16.43;100.00
21753;BME280;11038;50.940;20.564;2022-09-09T05:25:12;97550.63;;;16.45;100.00
21753;BME280;11038;50.940;20.564;2022-09-09T05:26:44;97547.50;;;16.48;100.00
21753;BME280;11038;50.940;20.564;2022-09-09T05:28:17;97545.66;;;16.48;100.00
21753;BME280;11038;50.940;20.564;2022-09-09T05:29:49;97539.41;;;16.55;100.00
21753;BME280;11038;50.940;20.564;2022-09-09T05:31:21;97541.88;;;16.56;100.00
21753;BME280;11038;50.940;20.564;2022-09-09T05:32:56;97537.94;;;16.59;100.00
21753;BME280;11038;50.940;20.564;2022-09-09T05:34:28;97544.56;;;16.63;100.00
21753;BME280;11038;50.940;20.564;2022-09-09T05:36:04;97552.44;;;16.65;100.00
21753;BME280;11038;50.940;20.564;2022-09-09T05:37:36;97547.44;;;16.68;100.00
21753;BME280;11038;50.940;20.564;2022-09-09T05:39:08;97566.31;;;16.68;100.00
21753;BME280;11038;50.940;20.564;2022-09-09T05:40:47;97563.63;;;16.68;100.00
21753;BME280;11038;50.940;20.564;2022-09-09T05:42:19;97562.56;;;16.69;100.00
21753;BME280;11038;50.940;20.564;2022-09-09T05:43:52;97571.06;;;16.73;100.00
21753;BME280;11038;50.940;20.564;2022-09-09T05:45:24;97560.28;;;16.73;100.00
21753;BME280;11038;50.940;20.564;2022-09-09T05:46:57;97566.06;;;16.77;100.00
21753;BME280;11038;50.940;20.564;2022-09-09T05:48:32;97567.34;;;16.74;100.00
21753;BME280;11038;50.940;20.564;2022-09-09T05:50:05;97561.72;;;16.76;100.00
21753;BME280;11038;50.940;20.564;2022-09-09T05:51:37;97573.53;;;16.75;100.00
21753;BME280;11038;50.940;20.564;2022-09-09T05:53:09;97559.19;;;16.81;100.00
21753;BME280;11038;50.940;20.564;2022-09-09T05:54:42;97571.41;;;16.90;100.00
21753;BME280;11038;50.940;20.564;2022-09-09T05:56:17;97570.75;;;16.95;100.00
21753;BME280;11038;50.940;20.564;2022-09-09T05:57:49;97565.28;;;17.02;100.00
21753;BME280;11038;50.940;20.564;2022-09-09T05:59:23;97574.47;;;17.33;100.00
21753;BME280;11038;50.940;20.564;2022-09-09T06:01:10;97576.69;;;17.69;100.00
21753;BME280;11038;50.940;20.564;2022-09-09T06:02:43;97574.06;;;18.07;100.00
21753;BME280;11038;50.940;20.564;2022-09-09T06:04:15;97576.03;;;18.18;100.00
21753;BME280;11038;50.940;20.564;2022-09-09T06:06:01;97575.78;;;18.27;100.00
21753;BME280;11038;50.940;20.564;2022-09-09T06:07:35;97581.03;;;18.40;100.00
21753;BME280;11038;50.940;20.564;2022-09-09T06:09:09;97583.13;;;18.57;100.00
21753;BME280;11038;50.940;20.564;2022-09-09T06:10:42;97581.16;;;18.64;100.00
21753;BME280;11038;50.940;20.564;2022-09-09T06:12:15;97586.13;;;18.67;100.00
21753;BME280;11038;50.940;20.564;2022-09-09T06:13:48;97579.38;;;18.77;100.00
21753;BME280;11038;50.940;20.564;2022-09-09T06:15:22;97582.78;;;18.84;100.00
21753;BME280;11038;50.940;20.564;2022-09-09T06:16:54;97584.34;;;18.92;100.00
21753;BME280;11038;50.940;20.564;2022-09-09T06:18:26;97582.25;;;18.94;100.00
21753;BME280;11038;50.940;20.564;2022-09-09T06:19:58;97583.78;;;19.02;100.00
21753;BME280;11038;50.940;20.564;2022-09-09T06:21:36;97591.97;;;19.14;100.00
21753;BME280;11038;50.940;20.564;2022-09-09T06:23:08;97592.13;;;19.19;100.00
21753;BME280;11038;50.940;20.564;2022-09-09T06:24:41;97597.00;;;19.10;100.00
21753;BME280;11038;50.940;20.564;2022-09-09T06:26:15;97598.69;;;19.11;100.00
21753;BME280;11038;50.940;20.564;2022-09-09T06:27:49;97605.13;;;19.10;100.00
21753;BME280;11038;50.940;20.564;2022-09-09T06:29:21;97606.56;;;19.13;100.00
21753;BME280;11038;50.940;20.564;2022-09-09T06:31:00;97606.66;;;19.06;100.00
21753;BME280;11038;50.940;20.564;2022-09-09T06:32:33;97606.06;;;19.04;99.24
21753;BME280;11038;50.940;20.564;2022-09-09T06:34:08;97608.53;;;19.24;99.15
21753;BME280;11038;50.940;20.564;2022-09-09T06:35:40;97603.28;;;19.42;98.66
21753;BME280;11038;50.940;20.564;2022-09-09T06:37:13;97614.31;;;19.40;98.10
21753;BME280;11038;50.940;20.564;2022-09-09T06:38:46;97613.03;;;19.43;98.21
21753;BME280;11038;50.940;20.564;2022-09-09T06:40:18;97623.03;;;19.30;97.51
21753;BME280;11038;50.940;20.564;2022-09-09T06:41:50;97620.63;;;19.22;97.52
21753;BME280;11038;50.940;20.564;2022-09-09T06:43:25;97621.94;;;19.19;96.85
21753;BME280;11038;50.940;20.564;2022-09-09T06:44:58;97619.59;;;19.04;96.08
21753;BME280;11038;50.940;20.564;2022-09-09T06:46:31;97628.00;;;19.14;95.79
21753;BME280;11038;50.940;20.564;2022-09-09T06:48:33;97625.72;;;19.30;95.40
21753;BME280;11038;50.940;20.564;2022-09-09T06:50:06;97625.13;;;19.28;95.12
21753;BME280;11038;50.940;20.564;2022-09-09T06:51:40;97633.84;;;19.30;95.03
21753;BME280;11038;50.940;20.564;2022-09-09T06:53:17;97620.31;;;19.30;95.19
21753;BME280;11038;50.940;20.564;2022-09-09T06:54:50;97625.72;;;19.30;95.27
21753;BME280;11038;50.940;20.564;2022-09-09T06:57:56;97617.59;;;19.30;94.55
21753;BME280;11038;50.940;20.564;2022-09-09T06:59:28;97617.50;;;19.37;94.46
21753;BME280;11038;50.940;20.564;2022-09-09T07:01:06;97618.78;;;19.34;94.11
21753;BME280;11038;50.940;20.564;2022-09-09T07:02:38;97623.75;;;19.38;94.36
21753;BME280;11038;50.940;20.564;2022-09-09T07:04:11;97618.94;;;19.40;94.27
21753;BME280;11038;50.940;20.564;2022-09-09T07:05:53;97616.13;;;19.46;94.17
21753;BME280;11038;50.940;20.564;2022-09-09T07:07:26;97621.56;;;19.58;93.43
21753;BME280;11038;50.940;20.564;2022-09-09T07:09:01;97623.34;;;19.65;93.17
21753;BME280;11038;50.940;20.564;2022-09-09T07:10:35;97619.81;;;19.76;92.92
21753;BME280;11038;50.940;20.564;2022-09-09T07:12:07;97622.53;;;19.76;92.85
21753;BME280;11038;50.940;20.564;2022-09-09T07:13:40;97621.38;;;19.84;92.37
21753;BME280;11038;50.940;20.564;2022-09-09T07:15:12;97622.13;;;20.16;91.02
21753;BME280;11038;50.940;20.564;2022-09-09T07:16:46;97629.06;;;20.48;90.42
21753;BME280;11038;50.940;20.564;2022-09-09T07:18:19;97620.00;;;20.83;89.87
21753;BME280;11038;50.940;20.564;2022-09-09T07:19:51;97623.94;;;21.17;88.85
21753;BME280;11038;50.940;20.564;2022-09-09T07:21:26;97617.94;;;21.32;86.67
21753;BME280;11038;50.940;20.564;2022-09-09T07:22:58;97623.38;;;21.32;85.37
21753;BME280;11038;50.940;20.564;2022-09-09T07:24:31;97616.00;;;21.62;84.43
21753;BME280;11038;50.940;20.564;2022-09-09T07:26:08;97622.47;;;21.90;83.19
21753;BME280;11038;50.940;20.564;2022-09-09T07:27:40;97622.63;;;22.00;80.83
21753;BME280;11038;50.940;20.564;2022-09-09T07:29:12;97616.03;;;22.14;78.43
21753;BME280;11038;50.940;20.564;2022-09-09T07:31:00;97620.78;;;22.63;77.31
21753;BME280;11038;50.940;20.564;2022-09-09T07:32:35;97623.09;;;22.72;75.06
21753;BME280;11038;50.940;20.564;2022-09-09T07:34:08;97616.59;;;22.73;74.62
21753;BME280;11038;50.940;20.564;2022-09-09T07:35:40;97620.63;;;22.93;73.26
21753;BME280;11038;50.940;20.564;2022-09-09T07:37:14;97617.69;;;22.99;72.73
21753;BME280;11038;50.940;20.564;2022-09-09T07:38:49;97623.03;;;23.11;72.07
21753;BME280;11038;50.940;20.564;2022-09-09T07:40:23;97623.72;;;23.29;71.42
21753;BME280;11038;50.940;20.564;2022-09-09T07:41:55;97625.81;;;23.44;70.91
21753;BME280;11038;50.940;20.564;2022-09-09T07:43:27;97627.97;;;23.75;69.57
21753;BME280;11038;50.940;20.564;2022-09-09T07:44:59;97627.13;;;24.08;68.53
21753;BME280;11038;50.940;20.564;2022-09-09T07:46:32;97628.88;;;24.25;68.03
21753;BME280;11038;50.940;20.564;2022-09-09T07:48:05;97636.56;;;24.28;67.16
21753;BME280;11038;50.940;20.564;2022-09-09T07:49:37;97628.31;;;24.22;66.25
21753;BME280;11038;50.940;20.564;2022-09-09T07:51:12;97645.16;;;24.09;65.54
21753;BME280;11038;50.940;20.564;2022-09-09T07:52:49;97643.63;;;24.24;64.81
21753;BME280;11038;50.940;20.564;2022-09-09T07:54:21;97646.91;;;24.26;64.13
21753;BME280;11038;50.940;20.564;2022-09-09T07:55:55;97645.13;;;24.42;63.73
21753;BME280;11038;50.940;20.564;2022-09-09T07:57:34;97639.88;;;24.35;63.64
21753;BME280;11038;50.940;20.564;2022-09-09T07:59:08;97649.19;;;24.34;63.93
21753;BME280;11038;50.940;20.564;2022-09-09T08:00:41;97639.88;;;24.35;63.03
21753;BME280;11038;50.940;20.564;2022-09-09T08:02:15;97631.34;;;24.21;62.73
21753;BME280;11038;50.940;20.564;2022-09-09T08:03:56;97641.97;;;24.22;63.62
21753;BME280;11038;50.940;20.564;2022-09-09T08:05:31;97644.09;;;24.10;63.20
21753;BME280;11038;50.940;20.564;2022-09-09T08:07:03;97631.97;;;23.95;63.44
21753;BME280;11038;50.940;20.564;2022-09-09T08:08:36;97642.03;;;23.95;63.86
21753;BME280;11038;50.940;20.564;2022-09-09T08:10:09;97639.25;;;24.22;63.88
21753;BME280;11038;50.940;20.564;2022-09-09T08:11:42;97646.78;;;24.43;63.89
21753;BME280;11038;50.940;20.564;2022-09-09T08:13:14;97646.56;;;24.60;63.14
21753;BME280;11038;50.940;20.564;2022-09-09T08:14:49;97641.75;;;24.78;62.89
21753;BME280;11038;50.940;20.564;2022-09-09T08:16:26;97644.53;;;24.88;62.13
21753;BME280;11038;50.940;20.564;2022-09-09T08:17:58;97649.25;;;25.09;61.35
21753;BME280;11038;50.940;20.564;2022-09-09T08:19:30;97649.03;;;25.21;60.43
21753;BME280;11038;50.940;20.564;2022-09-09T08:21:07;97651.00;;;25.52;61.08
21753;BME280;11038;50.940;20.564;2022-09-09T08:22:40;97655.13;;;25.54;60.95
21753;BME280;11038;50.940;20.564;2022-09-09T08:24:14;97652.38;;;25.60;58.96
21753;BME280;11038;50.940;20.564;2022-09-09T08:25:46;97645.25;;;25.64;57.98
21753;BME280;11038;50.940;20.564;2022-09-09T08:27:20;97652.91;;;25.36;57.67
21753;BME280;11038;50.940;20.564;2022-09-09T08:28:54;97653.69;;;25.31;57.08
21753;BME280;11038;50.940;20.564;2022-09-09T08:30:27;97647.16;;;25.58;56.60
21753;BME280;11038;50.940;20.564;2022-09-09T08:31:59;97660.84;;;25.48;56.86
21753;BME280;11038;50.940;20.564;2022-09-09T08:33:31;97664.63;;;25.26;56.66
21753;BME280;11038;50.940;20.564;2022-09-09T08:35:04;97653.94;;;25.14;55.96
21753;BME280;11038;50.940;20.564;2022-09-09T08:36:42;97657.72;;;25.02;56.50
21753;BME280;11038;50.940;20.564;2022-09-09T08:38:14;97660.94;;;24.94;56.91
21753;BME280;11038;50.940;20.564;2022-09-09T08:39:47;97655.53;;;25.04;57.42
21753;BME280;11038;50.940;20.564;2022-09-09T08:41:43;97647.97;;;25.27;56.76
21753;BME280;11038;50.940;20.564;2022-09-09T08:43:22;97652.91;;;25.41;56.08